Time,TemperatureF,DewpointF,PressureIn,WindDirection,WindDirectionDegrees,WindSpeedMPH,WindSpeedGustMPH,Humidity,HourlyPrecipIn,Conditions,Clouds,dailyrainin,SoftwareType,DateUTC
2013-07-31 00:01:00,62.3,61.1,30.05,ENE,67,0.0,0.0,96,0.00,,,0.00,WUHU216DAVISVP2,2013-07-31 04:01:00,
2013-07-31 00:07:00,62.3,61.1,30.05,ENE,67,0.0,0.0,96,0.00,,,0.00,WUHU216DAVISVP2,2013-07-31 04:07:00,
2013-07-31 00:12:00,62.3,61.1,30.05,ENE,67,0.0,0.0,96,0.00,,,0.00,WUHU216DAVISVP2,2013-07-31 04:12:00,
2013-07-31 00:17:00,62.3,61.1,30.05,ENE,67,0.0,0.0,96,0.00,,,0.00,WUHU216DAVISVP2,2013-07-31 04:17:00,
2013-07-31 00:22:00,62.3,61.1,30.05,ENE,67,0.0,0.0,96,0.00,,,0.00,WUHU216DAVISVP2,2013-07-31 04:22:00,
2013-07-31 00:27:00,62.3,61.1,30.05,ENE,67,0.0,0.0,96,0.00,,,0.00,WUHU216DAVISVP2,2013-07-31 04:27:00,
2013-07-31 00:32:00,62.2,60.8,30.05,ENE,67,0.0,0.0,95,0.00,,,0.00,WUHU216DAVISVP2,2013-07-31 04:32:00,
2013-07-31 00:37:00,62.2,60.7,30.05,ENE,67,0.0,0.0,95,0.00,,,0.00,WUHU216DAVISVP2,2013-07-31 04:37:00,
2013-07-31 00:42:00,62.2,60.7,30.05,ENE,67,0.0,0.0,95,0.00,,,0.00,WUHU216DAVISVP2,2013-07-31 04:42:00,
2013-07-31 00:47:00,62.1,60.6,30.05,ENE,67,0.0,0.0,95,0.00,,,0.00,WUHU216DAVISVP2,2013-07-31 04:47:00,
2013-07-31 00:52:00,62.1,60.9,30.05,ENE,67,0.0,0.0,96,0.00,,,0.00,WUHU216DAVISVP2,2013-07-31 04:52:00,
2013-07-31 00:57:00,62.0,60.5,30.05,ENE,67,0.0,0.0,95,0.00,,,0.00,WUHU216DAVISVP2,2013-07-31 04:57:00,
2013-07-31 01:02:00,61.9,60.7,30.05,ENE,67,0.0,0.0,96,0.00,,,0.00,WUHU216DAVISVP2,2013-07-31 05:02:00,
2013-07-31 01:07:00,61.8,60.6,30.05,ENE,67,0.0,0.0,96,0.00,,,0.00,WUHU216DAVISVP2,2013-07-31 05:07:00,
2013-07-31 01:12:00,61.7,60.5,30.04,ENE,67,0.0,0.0,96,0.00,,,0.00,WUHU216DAVISVP2,2013-07-31 05:12:00,
2013-07-31 01:17:00,61.5,60.3,30.05,ENE,67,0.0,0.0,96,0.00,,,0.00,WUHU216DAVISVP2,2013-07-31 05:17:00,
2013-07-31 01:22:00,61.4,60.2,30.05,ENE,67,0.0,0.0,96,0.00,,,0.00,WUHU216DAVISVP2,2013-07-31 05:22:00,
2013-07-31 01:27:00,61.3,60.1,30.05,ENE,67,0.0,0.0,96,0.00,,,0.00,WUHU216DAVISVP2,2013-07-31 05:27:00,
2013-07-31 01:32:00,61.1,59.9,30.05,ENE,67,0.0,0.0,96,0.00,,,0.00,WUHU216DAVISVP2,2013-07-31 05:32:00,
2013-07-31 01:37:00,61.0,59.8,30.05,ENE,67,0.0,0.0,96,0.00,,,0.00,WUHU216DAVISVP2,2013-07-31 05:37:00,
2013-07-31 01:42:00,60.8,59.7,30.05,ENE,67,0.0,0.0,96,0.00,,,0.00,WUHU216DAVISVP2,2013-07-31 05:42:00,
2013-07-31 01:47:00,60.7,59.6,30.05,ENE,67,0.0,0.0,96,0.00,,,0.00,WUHU216DAVISVP2,2013-07-31 05:47:00,
2013-07-31 01:52:00,60.5,59.4,30.05,ENE,67,0.0,0.0,96,0.00,,,0.00,WUHU216DAVISVP2,2013-07-31 05:52:00,
2013-07-31 01:57:00,60.3,59.2,30.05,ENE,67,0.0,0.0,96,0.00,,,0.00,WUHU216DAVISVP2,2013-07-31 05:57:00,
2013-07-31 02:02:00,60.2,59.1,30.05,ENE,67,0.0,0.0,96,0.00,,,0.00,WUHU216DAVISVP2,2013-07-31 06:02:00,
2013-07-31 02:07:00,60.0,58.9,30.05,ENE,67,0.0,0.0,96,0.00,,,0.00,WUHU216DAVISVP2,2013-07-31 06:07:00,
2013-07-31 02:12:00,59.9,58.7,30.05,ENE,67,0.0,0.0,96,0.00,,,0.00,WUHU216DAVISVP2,2013-07-31 06:12:00,
2013-07-31 02:17:00,59.8,58.6,30.05,ENE,67,0.0,0.0,96,0.00,,,0.00,WUHU216DAVISVP2,2013-07-31 06:17:00,
2013-07-31 02:22:00,59.7,58.8,30.05,ENE,67,0.0,0.0,97,0.00,,,0.00,WUHU216DAVISVP2,2013-07-31 06:22:00,
2013-07-31 02:27:00,59.6,58.4,30.05,ENE,67,0.0,0.0,96,0.00,,,0.00,WUHU216DAVISVP2,2013-07-31 06:27:00,
2013-07-31 02:32:00,59.4,58.5,30.05,ENE,67,0.0,0.0,97,0.00,,,0.00,WUHU216DAVISVP2,2013-07-31 06:32:00,
2013-07-31 02:37:00,59.4,58.5,30.05,ENE,67,0.0,0.0,97,0.00,,,0.00,WUHU216DAVISVP2,2013-07-31 06:37:00,
2013-07-31 02:42:00,59.3,58.4,30.05,ENE,67,0.0,0.0,97,0.00,,,0.00,WUHU216DAVISVP2,2013-07-31 06:42:00,
2013-07-31 02:47:00,59.2,58.3,30.05,ENE,67,0.0,0.0,97,0.00,,,0.00,WUHU216DAVISVP2,2013-07-31 06:47:00,
2013-07-31 02:52:00,59.1,58.2,30.05,ENE,67,0.0,0.0,97,0.00,,,0.00,WUHU216DAVISVP2,2013-07-31 06:52:00,
2013-07-31 02:57:00,59.0,58.1,30.05,ENE,67,0.0,0.0,97,0.00,,,0.00,WUHU216DAVISVP2,2013-07-31 06:57:00,
2013-07-31 03:02:00,58.9,58.0,30.05,ENE,67,0.0,0.0,97,0.00,,,0.00,WUHU216DAVISVP2,2013-07-31 07:02:00,
2013-07-31 03:07:00,58.8,57.9,30.05,ENE,67,0.0,0.0,97,0.00,,,0.00,WUHU216DAVISVP2,2013-07-31 07:07:00,
2013-07-31 03:12:00,58.7,57.8,30.05,ENE,67,0.0,0.0,97,0.00,,,0.00,WUHU216DAVISVP2,2013-07-31 07:12:00,
2013-07-31 03:17:00,58.6,57.7,30.05,ENE,67,0.0,0.0,97,0.00,,,0.00,WUHU216DAVISVP2,2013-07-31 07:17:00,
2013-07-31 03:22:00,58.5,57.6,30.05,ENE,67,0.0,0.0,97,0.00,,,0.00,WUHU216DAVISVP2,2013-07-31 07:22:00,
2013-07-31 03:27:00,58.3,57.4,30.05,ENE,67,0.0,0.0,97,0.00,,,0.00,WUHU216DAVISVP2,2013-07-31 07:27:00,
2013-07-31 03:32:00,58.2,57.3,30.06,ENE,67,0.0,0.0,97,0.00,,,0.00,WUHU216DAVISVP2,2013-07-31 07:32:00,
2013-07-31 03:37:00,58.0,57.1,30.06,ENE,67,0.0,0.0,97,0.00,,,0.00,WUHU216DAVISVP2,2013-07-31 07:37:00,
2013-07-31 03:42:00,57.9,57.0,30.06,ENE,67,0.0,0.0,97,0.00,,,0.00,WUHU216DAVISVP2,2013-07-31 07:42:00,
2013-07-31 03:47:00,57.9,57.0,30.06,ENE,67,0.0,0.0,97,0.00,,,0.00,WUHU216DAVISVP2,2013-07-31 07:47:00,
2013-07-31 03:52:00,57.8,56.9,30.06,ENE,67,0.0,0.0,97,0.00,,,0.00,WUHU216DAVISVP2,2013-07-31 07:52:00,
2013-07-31 03:57:00,57.7,56.8,30.06,ENE,67,0.0,0.0,97,0.00,,,0.00,WUHU216DAVISVP2,2013-07-31 07:57:00,
2013-07-31 04:02:00,57.6,56.7,30.06,ENE,67,0.0,0.0,97,0.00,,,0.00,WUHU216DAVISVP2,2013-07-31 08:02:00,
2013-07-31 04:07:00,57.4,56.5,30.06,ENE,67,0.0,0.0,97,0.00,,,0.00,WUHU216DAVISVP2,2013-07-31 08:07:00,
2013-07-31 04:12:00,57.3,56.5,30.06,ENE,67,0.0,0.0,97,0.00,,,0.00,WUHU216DAVISVP2,2013-07-31 08:12:00,
2013-07-31 04:17:00,57.2,56.4,30.06,ENE,67,0.0,0.0,97,0.00,,,0.00,WUHU216DAVISVP2,2013-07-31 08:17:00,
2013-07-31 04:22:00,57.0,56.2,30.06,ENE,67,0.0,0.0,97,0.00,,,0.00,WUHU216DAVISVP2,2013-07-31 08:22:00,
2013-07-31 04:27:00,56.9,56.1,30.07,ENE,67,0.0,0.0,97,0.00,,,0.00,WUHU216DAVISVP2,2013-07-31 08:27:00,
2013-07-31 04:32:00,56.7,55.9,30.07,ENE,67,0.0,0.0,97,0.00,,,0.00,WUHU216DAVISVP2,2013-07-31 08:32:00,
2013-07-31 04:37:00,56.6,55.8,30.07,ENE,67,0.0,0.0,97,0.00,,,0.00,WUHU216DAVISVP2,2013-07-31 08:37:00,
2013-07-31 04:42:00,56.5,55.6,30.07,ENE,67,0.0,0.0,97,0.00,,,0.00,WUHU216DAVISVP2,2013-07-31 08:42:00,
2013-07-31 04:47:00,56.4,55.5,30.07,ENE,67,0.0,0.0,97,0.00,,,0.00,WUHU216DAVISVP2,2013-07-31 08:47:00,
2013-07-31 04:52:00,56.2,55.3,30.07,ENE,67,0.0,0.0,97,0.00,,,0.00,WUHU216DAVISVP2,2013-07-31 08:52:00,
2013-07-31 04:57:00,56.2,55.3,30.07,ENE,67,0.0,0.0,97,0.00,,,0.00,WUHU216DAVISVP2,2013-07-31 08:57:00,
2013-07-31 05:02:00,56.0,55.1,30.08,ENE,67,0.0,0.0,97,0.00,,,0.00,WUHU216DAVISVP2,2013-07-31 09:02:00,
2013-07-31 05:07:00,55.9,55.0,30.08,ENE,67,0.0,0.0,97,0.00,,,0.00,WUHU216DAVISVP2,2013-07-31 09:07:00,
2013-07-31 05:12:00,55.8,54.9,30.08,ENE,67,0.0,0.0,97,0.00,,,0.00,WUHU216DAVISVP2,2013-07-31 09:12:00,
2013-07-31 05:17:00,55.7,54.8,30.08,ENE,67,0.0,0.0,97,0.00,,,0.00,WUHU216DAVISVP2,2013-07-31 09:17:00,
2013-07-31 05:22:00,55.6,54.7,30.08,ENE,67,0.0,0.0,97,0.00,,,0.00,WUHU216DAVISVP2,2013-07-31 09:22:00,
2013-07-31 05:27:00,55.5,54.6,30.08,ENE,67,0.0,0.0,97,0.00,,,0.00,WUHU216DAVISVP2,2013-07-31 09:27:00,
2013-07-31 05:32:00,55.4,54.5,30.09,ENE,67,0.0,0.0,97,0.00,,,0.00,WUHU216DAVISVP2,2013-07-31 09:32:00,
2013-07-31 05:37:00,55.3,54.5,30.09,ENE,67,0.0,0.0,97,0.00,,,0.00,WUHU216DAVISVP2,2013-07-31 09:37:00,
2013-07-31 05:42:00,55.2,54.4,30.09,ENE,67,0.0,0.0,97,0.00,,,0.00,WUHU216DAVISVP2,2013-07-31 09:42:00,
2013-07-31 05:47:00,55.1,54.3,30.09,ENE,67,0.0,0.0,97,0.00,,,0.00,WUHU216DAVISVP2,2013-07-31 09:47:00,
2013-07-31 05:52:00,55.0,54.2,30.09,ENE,67,0.0,0.0,97,0.00,,,0.00,WUHU216DAVISVP2,2013-07-31 09:52:00,
2013-07-31 05:57:00,55.0,54.4,30.09,ENE,67,0.0,0.0,98,0.00,,,0.00,WUHU216DAVISVP2,2013-07-31 09:57:00,
2013-07-31 06:02:00,55.0,54.4,30.09,ENE,67,0.0,0.0,98,0.00,,,0.00,WUHU216DAVISVP2,2013-07-31 10:02:00,
2013-07-31 06:07:00,54.9,54.3,30.10,ENE,67,0.0,0.0,98,0.00,,,0.00,WUHU216DAVISVP2,2013-07-31 10:07:00,
2013-07-31 06:12:00,54.9,54.3,30.10,ENE,67,0.0,0.0,98,0.00,,,0.00,WUHU216DAVISVP2,2013-07-31 10:12:00,
2013-07-31 06:17:00,55.0,54.4,30.10,ENE,67,0.0,0.0,98,0.00,,,0.00,WUHU216DAVISVP2,2013-07-31 10:17:00,
2013-07-31 06:22:00,55.1,54.5,30.10,ENE,67,0.0,0.0,98,0.00,,,0.00,WUHU216DAVISVP2,2013-07-31 10:22:00,
2013-07-31 06:27:00,55.1,54.5,30.10,ENE,67,0.0,0.0,98,0.00,,,0.00,WUHU216DAVISVP2,2013-07-31 10:27:00,
2013-07-31 06:32:00,55.2,54.6,30.10,ENE,67,0.0,0.0,98,0.00,,,0.00,WUHU216DAVISVP2,2013-07-31 10:32:00,
2013-07-31 06:37:00,55.2,54.6,30.10,ENE,67,0.0,0.0,98,0.00,,,0.00,WUHU216DAVISVP2,2013-07-31 10:37:00,
2013-07-31 06:42:00,55.4,54.8,30.10,ENE,67,0.0,0.0,98,0.00,,,0.00,WUHU216DAVISVP2,2013-07-31 10:42:00,
2013-07-31 06:47:00,55.6,55.0,30.10,ENE,67,0.0,0.0,98,0.00,,,0.00,WUHU216DAVISVP2,2013-07-31 10:47:00,
2013-07-31 06:52:00,55.7,55.1,30.10,ENE,67,0.0,0.0,98,0.00,,,0.00,WUHU216DAVISVP2,2013-07-31 10:52:00,
2013-07-31 06:57:00,56.0,55.4,30.10,ENE,67,0.0,0.0,98,0.00,,,0.00,WUHU216DAVISVP2,2013-07-31 10:57:00,
2013-07-31 07:02:00,56.2,55.9,30.10,ENE,67,0.0,0.0,99,0.00,,,0.00,WUHU216DAVISVP2,2013-07-31 11:02:00,
2013-07-31 07:07:00,56.5,56.2,30.10,ENE,67,0.0,0.0,99,0.00,,,0.00,WUHU216DAVISVP2,2013-07-31 11:07:00,
2013-07-31 07:12:00,56.8,56.5,30.10,ENE,67,0.0,0.0,99,0.00,,,0.00,WUHU216DAVISVP2,2013-07-31 11:12:00,
2013-07-31 07:17:00,57.3,57.0,30.10,ENE,67,0.0,0.0,99,0.00,,,0.00,WUHU216DAVISVP2,2013-07-31 11:17:00,
2013-07-31 07:22:00,57.8,57.5,30.10,ENE,67,0.0,0.0,99,0.00,,,0.00,WUHU216DAVISVP2,2013-07-31 11:22:00,
2013-07-31 07:27:00,58.2,57.9,30.10,ENE,67,0.0,0.0,99,0.00,,,0.00,WUHU216DAVISVP2,2013-07-31 11:27:00,
2013-07-31 07:32:00,58.7,58.4,30.11,ENE,67,0.0,0.0,99,0.00,,,0.00,WUHU216DAVISVP2,2013-07-31 11:32:00,
2013-07-31 07:37:00,59.3,59.0,30.11,ENE,67,0.0,0.0,99,0.00,,,0.00,WUHU216DAVISVP2,2013-07-31 11:37:00,
2013-07-31 07:42:00,59.8,59.5,30.11,ENE,67,0.0,0.0,99,0.00,,,0.00,WUHU216DAVISVP2,2013-07-31 11:42:00,
2013-07-31 07:47:00,60.4,60.1,30.11,ENE,67,0.0,0.0,99,0.00,,,0.00,WUHU216DAVISVP2,2013-07-31 11:47:00,
2013-07-31 07:52:00,60.9,60.6,30.10,ENE,67,0.0,1.0,99,0.00,,,0.00,WUHU216DAVISVP2,2013-07-31 11:52:00,
2013-07-31 07:57:00,61.4,61.1,30.10,SSE,163,0.0,1.0,99,0.00,,,0.00,WUHU216DAVISVP2,2013-07-31 11:57:00,
2013-07-31 08:02:00,61.9,61.6,30.10,SSE,163,1.0,1.0,99,0.00,,,0.00,WUHU216DAVISVP2,2013-07-31 12:02:00,
2013-07-31 08:07:00,62.5,61.3,30.10,SSE,163,0.0,1.0,96,0.00,,,0.00,WUHU216DAVISVP2,2013-07-31 12:07:00,
2013-07-31 08:12:00,63.1,61.3,30.10,East,96,0.0,2.0,94,0.00,,,0.00,WUHU216DAVISVP2,2013-07-31 12:12:00,
2013-07-31 08:17:00,63.8,61.4,30.10,NNW,335,1.0,2.0,92,0.00,,,0.00,WUHU216DAVISVP2,2013-07-31 12:17:00,
2013-07-31 08:22:00,64.5,61.2,30.10,NW,321,1.0,2.0,89,0.00,,,0.00,WUHU216DAVISVP2,2013-07-31 12:22:00,
2013-07-31 08:27:00,65.0,61.0,30.10,SW,232,1.3,2.0,87,0.00,,,0.00,WUHU216DAVISVP2,2013-07-31 12:27:00,
2013-07-31 08:32:00,65.6,61.6,30.10,SW,232,0.0,2.0,87,0.00,,,0.00,WUHU216DAVISVP2,2013-07-31 12:32:00,
2013-07-31 08:37:00,66.3,62.3,30.10,SW,232,0.0,2.0,87,0.00,,,0.00,WUHU216DAVISVP2,2013-07-31 12:37:00,
2013-07-31 08:42:00,67.0,60.7,30.10,North,7,2.1,4.0,80,0.00,,,0.00,WUHU216DAVISVP2,2013-07-31 12:42:00,
2013-07-31 08:47:00,67.9,60.9,30.10,NE,34,1.0,5.0,78,0.00,,,0.00,WUHU216DAVISVP2,2013-07-31 12:47:00,
2013-07-31 08:52:00,68.5,61.5,30.10,NE,49,1.0,5.0,78,0.00,,,0.00,WUHU216DAVISVP2,2013-07-31 12:52:00,
2013-07-31 08:57:00,69.0,62.0,30.10,NE,55,0.0,5.0,78,0.00,,,0.00,WUHU216DAVISVP2,2013-07-31 12:57:00,
2013-07-31 09:02:00,69.7,61.6,30.10,NE,53,1.0,2.0,75,0.00,,,0.00,WUHU216DAVISVP2,2013-07-31 13:02:00,
2013-07-31 09:07:00,70.3,62.0,30.10,NE,53,1.0,2.0,75,0.00,,,0.00,WUHU216DAVISVP2,2013-07-31 13:07:00,
2013-07-31 09:12:00,70.7,61.6,30.10,West,281,1.0,3.0,73,0.00,,,0.00,WUHU216DAVISVP2,2013-07-31 13:12:00,
2013-07-31 09:17:00,70.9,61.4,30.10,WNW,301,1.0,4.0,72,0.00,,,0.00,WUHU216DAVISVP2,2013-07-31 13:17:00,
2013-07-31 09:22:00,71.1,62.0,30.10,North,0,1.0,4.0,73,0.00,,,0.00,WUHU216DAVISVP2,2013-07-31 13:22:00,
2013-07-31 09:27:00,71.3,61.0,30.10,WNW,287,1.6,4.0,70,0.00,,,0.00,WUHU216DAVISVP2,2013-07-31 13:27:00,
2013-07-31 09:33:00,71.4,61.1,30.10,West,265,1.0,4.0,70,0.00,,,0.00,WUHU216DAVISVP2,2013-07-31 13:33:00,
2013-07-31 09:38:00,71.8,61.5,30.10,West,263,1.0,4.0,70,0.00,,,0.00,WUHU216DAVISVP2,2013-07-31 13:38:00,
2013-07-31 09:43:00,72.1,61.0,30.10,ENE,60,2.0,4.0,68,0.00,,,0.00,WUHU216DAVISVP2,2013-07-31 13:43:00,
2013-07-31 09:48:00,72.3,59.9,30.09,ENE,63,1.0,3.0,65,0.00,,,0.00,WUHU216DAVISVP2,2013-07-31 13:48:00,
2013-07-31 09:53:00,72.7,61.5,30.09,ENE,63,0.0,3.0,68,0.00,,,0.00,WUHU216DAVISVP2,2013-07-31 13:53:00,
2013-07-31 09:57:00,73.1,61.5,30.09,North,0,1.0,3.0,67,0.00,,,0.00,WUHU216DAVISVP2,2013-07-31 13:57:00,
2013-07-31 10:02:00,73.4,61.1,30.09,WNW,284,1.0,2.0,65,0.00,,,0.00,WUHU216DAVISVP2,2013-07-31 14:02:00,
2013-07-31 10:07:00,73.4,60.2,30.09,WNW,291,1.3,3.0,63,0.00,,,0.00,WUHU216DAVISVP2,2013-07-31 14:07:00,
2013-07-31 10:12:00,73.4,60.7,30.08,NNE,24,2.0,4.0,64,0.00,,,0.00,WUHU216DAVISVP2,2013-07-31 14:12:00,
2013-07-31 10:18:00,73.7,61.4,30.08,SW,219,1.2,4.0,65,0.00,,,0.00,WUHU216DAVISVP2,2013-07-31 14:18:00,
2013-07-31 10:22:00,73.9,61.2,30.08,NNW,331,1.7,4.0,64,0.00,,,0.00,WUHU216DAVISVP2,2013-07-31 14:22:00,
2013-07-31 10:28:00,74.1,60.5,30.08,NE,37,1.4,4.0,62,0.00,,,0.00,WUHU216DAVISVP2,2013-07-31 14:28:00,
2013-07-31 10:32:00,74.5,60.8,30.08,NE,43,1.0,4.0,62,0.00,,,0.00,WUHU216DAVISVP2,2013-07-31 14:32:00,
2013-07-31 10:37:00,74.4,59.8,30.08,NE,43,2.0,3.0,60,0.00,,,0.00,WUHU216DAVISVP2,2013-07-31 14:37:00,
2013-07-31 10:42:00,74.5,60.4,30.08,NNW,333,1.3,3.0,61,0.00,,,0.00,WUHU216DAVISVP2,2013-07-31 14:42:00,
2013-07-31 10:47:00,74.7,59.6,30.07,West,276,3.0,3.0,59,0.00,,,0.00,WUHU216DAVISVP2,2013-07-31 14:47:00,
2013-07-31 10:52:00,74.8,61.1,30.08,NNW,340,1.2,4.0,62,0.00,,,0.00,WUHU216DAVISVP2,2013-07-31 14:52:00,
2013-07-31 10:57:00,75.1,60.5,30.08,ENE,73,2.0,4.0,60,0.00,,,0.00,WUHU216DAVISVP2,2013-07-31 14:57:00,
2013-07-31 11:02:00,75.3,60.7,30.07,North,0,1.0,4.0,60,0.00,,,0.00,WUHU216DAVISVP2,2013-07-31 15:02:00,
2013-07-31 11:07:00,75.7,59.9,30.08,NE,52,2.0,4.0,58,0.00,,,0.00,WUHU216DAVISVP2,2013-07-31 15:07:00,
2013-07-31 11:12:00,75.5,59.7,30.07,NNE,33,1.3,5.0,58,0.00,,,0.00,WUHU216DAVISVP2,2013-07-31 15:12:00,
2013-07-31 11:17:00,75.9,60.1,30.07,SW,222,1.5,5.0,58,0.00,,,0.00,WUHU216DAVISVP2,2013-07-31 15:17:00,
2013-07-31 11:22:00,76.3,59.9,30.07,SW,232,2.0,5.0,57,0.00,,,0.00,WUHU216DAVISVP2,2013-07-31 15:22:00,
2013-07-31 11:27:00,76.4,59.5,30.07,West,280,1.5,5.0,56,0.00,,,0.00,WUHU216DAVISVP2,2013-07-31 15:27:00,
2013-07-31 11:32:00,76.4,59.7,30.07,NE,45,3.0,5.0,56,0.00,,,0.00,WUHU216DAVISVP2,2013-07-31 15:32:00,
2013-07-31 11:37:00,76.3,61.1,30.07,NE,38,3.0,5.0,59,0.00,,,0.00,WUHU216DAVISVP2,2013-07-31 15:37:00,
2013-07-31 11:43:00,76.7,59.5,30.07,WNW,290,2.5,5.0,55,0.00,,,0.00,WUHU216DAVISVP2,2013-07-31 15:43:00,
2013-07-31 11:48:00,77.1,59.9,30.07,WNW,287,1.8,4.0,55,0.00,,,0.00,WUHU216DAVISVP2,2013-07-31 15:48:00,
2013-07-31 11:53:00,77.2,61.0,30.07,North,351,1.0,4.0,57,0.00,,,0.00,WUHU216DAVISVP2,2013-07-31 15:53:00,
2013-07-31 11:58:00,77.6,62.3,30.07,West,275,1.6,4.0,59,0.00,,,0.00,WUHU216DAVISVP2,2013-07-31 15:58:00,
2013-07-31 12:03:00,78.3,60.5,30.07,NW,305,1.6,4.0,54,0.00,,,0.00,WUHU216DAVISVP2,2013-07-31 16:03:00,
2013-07-31 12:08:00,78.0,58.0,30.07,WNW,298,1.1,4.0,50,0.00,,,0.00,WUHU216DAVISVP2,2013-07-31 16:08:00,
2013-07-31 12:13:00,78.0,59.6,30.06,NW,312,1.0,4.0,53,0.00,,,0.00,WUHU216DAVISVP2,2013-07-31 16:13:00,
2013-07-31 12:18:00,78.1,58.0,30.06,West,270,1.5,4.0,50,0.00,,,0.00,WUHU216DAVISVP2,2013-07-31 16:18:00,
2013-07-31 12:23:00,77.9,60.6,30.06,WSW,255,1.0,3.0,55,0.00,,,0.00,WUHU216DAVISVP2,2013-07-31 16:23:00,
2013-07-31 12:28:00,77.4,57.4,30.06,ENE,59,1.1,3.0,50,0.00,,,0.00,WUHU216DAVISVP2,2013-07-31 16:28:00,
2013-07-31 12:33:00,77.4,59.1,30.06,ENE,57,0.0,3.0,53,0.00,,,0.00,WUHU216DAVISVP2,2013-07-31 16:33:00,
2013-07-31 12:37:00,77.7,57.7,30.05,WNW,298,1.4,3.0,50,0.00,,,0.00,WUHU216DAVISVP2,2013-07-31 16:37:00,
2013-07-31 12:42:00,78.0,58.5,30.06,SW,215,1.9,5.0,51,0.00,,,0.00,WUHU216DAVISVP2,2013-07-31 16:42:00,
2013-07-31 12:47:00,78.4,60.0,30.05,WNW,292,1.0,5.0,53,0.00,,,0.00,WUHU216DAVISVP2,2013-07-31 16:47:00,
2013-07-31 12:52:00,78.7,59.0,30.05,West,277,1.1,5.0,51,0.00,,,0.00,WUHU216DAVISVP2,2013-07-31 16:52:00,
2013-07-31 12:58:00,79.0,59.3,30.05,SSW,204,3.0,6.0,51,0.00,,,0.00,WUHU216DAVISVP2,2013-07-31 16:58:00,
2013-07-31 13:03:00,79.2,59.5,30.05,North,355,2.0,6.0,51,0.00,,,0.00,WUHU216DAVISVP2,2013-07-31 17:03:00,
2013-07-31 13:08:00,79.4,59.8,30.05,WNW,287,1.3,6.0,51,0.00,,,0.00,WUHU216DAVISVP2,2013-07-31 17:08:00,
2013-07-31 13:13:00,79.6,60.0,30.05,NNW,330,1.0,6.0,51,0.00,,,0.00,WUHU216DAVISVP2,2013-07-31 17:13:00,
2013-07-31 13:18:00,79.3,59.7,30.05,NE,44,1.0,5.0,51,0.00,,,0.00,WUHU216DAVISVP2,2013-07-31 17:18:00,
2013-07-31 13:23:00,79.9,60.3,30.05,SW,216,2.3,5.0,51,0.00,,,0.00,WUHU216DAVISVP2,2013-07-31 17:23:00,
2013-07-31 13:28:00,80.0,59.2,30.04,NNW,347,4.0,5.0,49,0.00,,,0.00,WUHU216DAVISVP2,2013-07-31 17:28:00,
2013-07-31 13:33:00,80.3,58.9,30.04,SW,231,1.7,5.0,48,0.00,,,0.00,WUHU216DAVISVP2,2013-07-31 17:33:00,
2013-07-31 13:38:00,80.7,58.7,30.05,NW,309,2.0,5.0,47,0.00,,,0.00,WUHU216DAVISVP2,2013-07-31 17:38:00,
2013-07-31 13:43:00,80.6,58.5,30.04,WNW,290,1.7,5.0,47,0.00,,,0.00,WUHU216DAVISVP2,2013-07-31 17:43:00,
2013-07-31 13:48:00,80.5,59.0,30.04,WNW,284,1.0,4.0,48,0.00,,,0.00,WUHU216DAVISVP2,2013-07-31 17:48:00,
2013-07-31 13:53:00,80.7,59.2,30.04,WSW,253,1.0,4.0,48,0.00,,,0.00,WUHU216DAVISVP2,2013-07-31 17:53:00,
2013-07-31 13:58:00,80.6,57.3,30.04,SW,235,2.0,4.0,45,0.00,,,0.00,WUHU216DAVISVP2,2013-07-31 17:58:00,
2013-07-31 14:03:00,80.6,57.3,30.03,SSW,213,2.5,4.0,45,0.00,,,0.00,WUHU216DAVISVP2,2013-07-31 18:03:00,
2013-07-31 14:07:00,80.6,57.9,30.03,SW,217,2.4,6.0,46,0.00,,,0.00,WUHU216DAVISVP2,2013-07-31 18:07:00,
2013-07-31 14:13:00,80.4,58.4,30.03,SW,220,2.7,6.0,47,0.00,,,0.00,WUHU216DAVISVP2,2013-07-31 18:13:00,
2013-07-31 14:17:00,80.2,58.8,30.03,SSW,196,1.9,6.0,48,0.00,,,0.00,WUHU216DAVISVP2,2013-07-31 18:17:00,
2013-07-31 14:23:00,80.7,61.0,30.03,SSW,202,1.0,6.0,51,0.00,,,0.00,WUHU216DAVISVP2,2013-07-31 18:23:00,
2013-07-31 14:28:00,81.3,58.6,30.03,NNW,345,1.9,6.0,46,0.00,,,0.00,WUHU216DAVISVP2,2013-07-31 18:28:00,
2013-07-31 14:32:00,81.5,60.0,30.03,West,259,2.0,4.0,48,0.00,,,0.00,WUHU216DAVISVP2,2013-07-31 18:32:00,
2013-07-31 14:37:00,82.0,58.6,30.03,West,259,0.0,6.0,45,0.00,,,0.00,WUHU216DAVISVP2,2013-07-31 18:37:00,
2013-07-31 14:42:00,82.0,61.1,30.03,South,179,1.0,6.0,49,0.00,,,0.00,WUHU216DAVISVP2,2013-07-31 18:42:00,
2013-07-31 14:47:00,81.5,58.8,30.02,South,175,2.0,6.0,46,0.00,,,0.00,WUHU216DAVISVP2,2013-07-31 18:47:00,
2013-07-31 14:52:00,81.5,58.8,30.02,South,185,1.9,6.0,46,0.00,,,0.00,WUHU216DAVISVP2,2013-07-31 18:52:00,
2013-07-31 14:57:00,81.4,58.0,30.02,SW,230,3.0,5.0,45,0.00,,,0.00,WUHU216DAVISVP2,2013-07-31 18:57:00,
2013-07-31 15:02:00,81.1,58.4,30.02,WNW,285,2.0,5.0,46,0.00,,,0.00,WUHU216DAVISVP2,2013-07-31 19:02:00,
2013-07-31 15:07:00,81.1,58.4,30.02,SW,230,2.6,5.0,46,0.00,,,0.00,WUHU216DAVISVP2,2013-07-31 19:07:00,
2013-07-31 15:12:00,81.2,59.6,30.02,WNW,299,1.1,5.0,48,0.00,,,0.00,WUHU216DAVISVP2,2013-07-31 19:12:00,
2013-07-31 15:17:00,81.6,59.4,30.02,WNW,291,1.5,5.0,47,0.00,,,0.00,WUHU216DAVISVP2,2013-07-31 19:17:00,
2013-07-31 15:23:00,82.0,58.6,30.02,West,270,1.0,5.0,45,0.00,,,0.00,WUHU216DAVISVP2,2013-07-31 19:23:00,
2013-07-31 15:28:00,82.4,59.0,30.01,West,270,0.0,4.0,45,0.00,,,0.00,WUHU216DAVISVP2,2013-07-31 19:28:00,
2013-07-31 15:32:00,82.3,59.5,30.02,East,83,1.4,4.0,46,0.00,,,0.00,WUHU216DAVISVP2,2013-07-31 19:32:00,
2013-07-31 15:37:00,82.5,59.1,30.01,East,101,0.0,4.0,45,0.00,,,0.00,WUHU216DAVISVP2,2013-07-31 19:37:00,
2013-07-31 15:43:00,82.3,60.1,30.01,ENE,68,1.5,4.0,47,0.00,,,0.00,WUHU216DAVISVP2,2013-07-31 19:43:00,
2013-07-31 15:48:00,81.8,59.0,30.01,North,357,1.3,4.0,46,0.00,,,0.00,WUHU216DAVISVP2,2013-07-31 19:48:00,
2013-07-31 15:53:00,82.1,60.6,30.01,NE,43,2.0,3.0,48,0.00,,,0.00,WUHU216DAVISVP2,2013-07-31 19:53:00,
2013-07-31 15:57:00,82.3,57.6,30.01,WSW,237,1.0,4.0,43,0.00,,,0.00,WUHU216DAVISVP2,2013-07-31 19:57:00,
2013-07-31 16:02:00,82.7,61.6,30.01,WSW,237,1.0,4.0,49,0.00,,,0.00,WUHU216DAVISVP2,2013-07-31 20:02:00,
2013-07-31 16:07:00,83.1,58.9,30.01,WSW,237,1.1,4.0,44,0.00,,,0.00,WUHU216DAVISVP2,2013-07-31 20:07:00,
2013-07-31 16:12:00,83.3,58.5,30.01,WSW,237,1.0,4.0,43,0.00,,,0.00,WUHU216DAVISVP2,2013-07-31 20:12:00,
2013-07-31 16:18:00,83.5,60.5,30.01,WSW,237,0.0,2.0,46,0.00,,,0.00,WUHU216DAVISVP2,2013-07-31 20:18:00,
2013-07-31 16:23:00,83.4,58.6,30.01,North,7,2.2,3.0,43,0.00,,,0.00,WUHU216DAVISVP2,2013-07-31 20:23:00,
2013-07-31 16:28:00,82.7,57.9,30.00,NW,313,0.0,3.0,43,0.00,,,0.00,WUHU216DAVISVP2,2013-07-31 20:28:00,
2013-07-31 16:33:00,83.2,59.0,30.00,NW,313,1.0,3.0,44,0.00,,,0.00,WUHU216DAVISVP2,2013-07-31 20:33:00,
2013-07-31 16:38:00,83.3,58.5,30.00,NW,313,0.0,3.0,43,0.00,,,0.00,WUHU216DAVISVP2,2013-07-31 20:38:00,
2013-07-31 16:43:00,83.4,61.1,30.00,WSW,254,1.0,3.0,47,0.00,,,0.00,WUHU216DAVISVP2,2013-07-31 20:43:00,
2013-07-31 16:48:00,83.6,59.4,30.00,SW,234,2.0,4.0,44,0.00,,,0.00,WUHU216DAVISVP2,2013-07-31 20:48:00,
2013-07-31 16:53:00,83.4,57.9,30.00,SSW,207,1.1,4.0,42,0.00,,,0.00,WUHU216DAVISVP2,2013-07-31 20:53:00,
2013-07-31 16:58:00,83.2,59.7,30.00,SW,232,1.0,4.0,45,0.00,,,0.00,WUHU216DAVISVP2,2013-07-31 20:58:00,
2013-07-31 17:03:00,83.1,60.2,30.00,SW,233,1.0,4.0,46,0.00,,,0.00,WUHU216DAVISVP2,2013-07-31 21:03:00,
2013-07-31 17:08:00,82.7,61.1,30.00,SW,233,1.0,3.0,48,0.00,,,0.00,WUHU216DAVISVP2,2013-07-31 21:08:00,
2013-07-31 17:13:00,82.6,60.4,30.00,SW,233,0.0,2.0,47,0.00,,,0.00,WUHU216DAVISVP2,2013-07-31 21:13:00,
2013-07-31 17:18:00,82.5,59.7,30.00,SW,233,1.2,3.0,46,0.00,,,0.00,WUHU216DAVISVP2,2013-07-31 21:18:00,
2013-07-31 17:23:00,82.3,63.1,30.00,SW,233,0.0,3.0,52,0.00,,,0.00,WUHU216DAVISVP2,2013-07-31 21:23:00,
2013-07-31 17:28:00,82.1,61.2,30.00,SW,233,0.0,3.0,49,0.00,,,0.00,WUHU216DAVISVP2,2013-07-31 21:28:00,
2013-07-31 17:33:00,82.0,61.1,30.00,SW,233,0.0,3.0,49,0.00,,,0.00,WUHU216DAVISVP2,2013-07-31 21:33:00,
2013-07-31 17:38:00,81.7,62.0,30.00,SW,233,0.0,3.0,51,0.00,,,0.00,WUHU216DAVISVP2,2013-07-31 21:38:00,
2013-07-31 17:43:00,81.7,61.4,30.00,SW,233,0.0,3.0,50,0.00,,,0.00,WUHU216DAVISVP2,2013-07-31 21:43:00,
2013-07-31 17:48:00,81.5,61.8,30.00,SW,233,0.0,3.0,51,0.00,,,0.00,WUHU216DAVISVP2,2013-07-31 21:48:00,
2013-07-31 17:53:00,81.1,61.8,30.00,SW,233,1.6,3.0,52,0.00,,,0.00,WUHU216DAVISVP2,2013-07-31 21:53:00,
2013-07-31 17:58:00,80.7,62.5,30.00,SW,233,1.0,3.0,54,0.00,,,0.00,WUHU216DAVISVP2,2013-07-31 21:58:00,
2013-07-31 18:03:00,80.4,62.8,30.00,SW,233,0.0,3.0,55,0.00,,,0.00,WUHU216DAVISVP2,2013-07-31 22:03:00,
2013-07-31 18:08:00,80.0,62.4,30.00,SW,233,0.0,3.0,55,0.00,,,0.00,WUHU216DAVISVP2,2013-07-31 22:08:00,
2013-07-31 18:13:00,79.6,64.0,30.00,SW,233,0.0,1.0,59,0.00,,,0.00,WUHU216DAVISVP2,2013-07-31 22:13:00,
2013-07-31 18:18:00,79.4,63.8,30.00,SW,233,0.0,1.0,59,0.00,,,0.00,WUHU216DAVISVP2,2013-07-31 22:18:00,
2013-07-31 18:23:00,79.2,64.3,30.00,SW,233,0.0,1.0,60,0.00,,,0.00,WUHU216DAVISVP2,2013-07-31 22:23:00,
2013-07-31 18:28:00,79.0,65.6,30.00,SW,233,0.0,1.0,63,0.00,,,0.00,WUHU216DAVISVP2,2013-07-31 22:28:00,
2013-07-31 18:33:00,78.8,65.8,30.00,SW,233,0.0,1.0,64,0.00,,,0.00,WUHU216DAVISVP2,2013-07-31 22:33:00,
2013-07-31 18:38:00,78.5,65.1,30.00,SW,233,0.0,0.0,63,0.00,,,0.00,WUHU216DAVISVP2,2013-07-31 22:38:00,
2013-07-31 18:43:00,78.2,65.7,30.00,SW,233,0.0,0.0,65,0.00,,,0.00,WUHU216DAVISVP2,2013-07-31 22:43:00,
2013-07-31 18:48:00,77.9,65.4,29.99,SW,233,0.0,0.0,65,0.00,,,0.00,WUHU216DAVISVP2,2013-07-31 22:48:00,
2013-07-31 18:53:00,77.4,65.4,30.00,SW,233,0.0,0.0,66,0.00,,,0.00,WUHU216DAVISVP2,2013-07-31 22:53:00,
2013-07-31 18:58:00,76.9,65.8,30.00,SW,233,0.0,0.0,68,0.00,,,0.00,WUHU216DAVISVP2,2013-07-31 22:58:00,
2013-07-31 19:03:00,76.5,66.2,30.00,SW,233,0.0,0.0,70,0.00,,,0.00,WUHU216DAVISVP2,2013-07-31 23:03:00,
2013-07-31 19:08:00,76.1,67.8,30.00,SW,233,0.0,0.0,75,0.00,,,0.00,WUHU216DAVISVP2,2013-07-31 23:08:00,
2013-07-31 19:13:00,75.5,68.3,30.00,SW,233,0.0,0.0,78,0.00,,,0.00,WUHU216DAVISVP2,2013-07-31 23:13:00,
2013-07-31 19:18:00,74.6,66.7,30.00,SW,233,0.0,0.0,76,0.00,,,0.00,WUHU216DAVISVP2,2013-07-31 23:18:00,
2013-07-31 19:23:00,74.0,66.5,30.00,SW,233,0.0,0.0,77,0.00,,,0.00,WUHU216DAVISVP2,2013-07-31 23:23:00,
2013-07-31 19:28:00,73.5,66.3,29.99,SW,233,0.0,0.0,78,0.00,,,0.00,WUHU216DAVISVP2,2013-07-31 23:28:00,
2013-07-31 19:33:00,73.0,66.2,29.99,SW,233,0.0,0.0,79,0.00,,,0.00,WUHU216DAVISVP2,2013-07-31 23:33:00,
2013-07-31 19:38:00,72.6,66.5,29.99,SW,233,0.0,0.0,81,0.00,,,0.00,WUHU216DAVISVP2,2013-07-31 23:38:00,
2013-07-31 19:43:00,72.1,66.0,29.99,SW,233,0.0,0.0,81,0.00,,,0.00,WUHU216DAVISVP2,2013-07-31 23:43:00,
2013-07-31 19:48:00,71.7,66.0,29.99,SW,233,0.0,0.0,82,0.00,,,0.00,WUHU216DAVISVP2,2013-07-31 23:48:00,
2013-07-31 19:53:00,71.3,65.6,29.99,SW,233,0.0,0.0,82,0.00,,,0.00,WUHU216DAVISVP2,2013-07-31 23:53:00,
2013-07-31 19:58:00,71.1,65.7,29.99,SW,233,0.0,0.0,83,0.00,,,0.00,WUHU216DAVISVP2,2013-07-31 23:58:00,
2013-07-31 20:03:00,70.7,66.0,29.99,SW,233,0.0,0.0,85,0.00,,,0.00,WUHU216DAVISVP2,2013-08-01 00:03:00,
2013-07-31 20:08:00,70.4,65.7,29.99,SW,233,0.0,0.0,85,0.00,,,0.00,WUHU216DAVISVP2,2013-08-01 00:08:00,
2013-07-31 20:13:00,70.0,65.6,29.99,SW,233,0.0,0.0,86,0.00,,,0.00,WUHU216DAVISVP2,2013-08-01 00:13:00,
2013-07-31 20:18:00,69.6,65.2,29.99,SW,233,0.0,0.0,86,0.00,,,0.00,WUHU216DAVISVP2,2013-08-01 00:18:00,
2013-07-31 20:23:00,69.3,65.3,29.99,SW,233,0.0,0.0,87,0.00,,,0.00,WUHU216DAVISVP2,2013-08-01 00:23:00,
2013-07-31 20:28:00,68.9,65.2,29.99,SW,233,0.0,0.0,88,0.00,,,0.00,WUHU216DAVISVP2,2013-08-01 00:28:00,
2013-07-31 20:33:00,68.6,64.9,29.99,SW,233,0.0,0.0,88,0.00,,,0.00,WUHU216DAVISVP2,2013-08-01 00:33:00,
2013-07-31 20:38:00,68.2,64.8,29.99,SW,233,0.0,0.0,89,0.00,,,0.00,WUHU216DAVISVP2,2013-08-01 00:38:00,
2013-07-31 20:43:00,68.0,64.6,29.99,SW,233,0.0,0.0,89,0.00,,,0.00,WUHU216DAVISVP2,2013-08-01 00:43:00,
2013-07-31 20:48:00,67.7,64.6,30.00,SW,233,0.0,0.0,90,0.00,,,0.00,WUHU216DAVISVP2,2013-08-01 00:48:00,
2013-07-31 20:53:00,67.4,64.3,30.00,SW,233,0.0,0.0,90,0.00,,,0.00,WUHU216DAVISVP2,2013-08-01 00:53:00,
2013-07-31 20:58:00,67.2,64.5,30.00,SW,233,0.0,0.0,91,0.00,,,0.00,WUHU216DAVISVP2,2013-08-01 00:58:00,
2013-07-31 21:03:00,67.0,64.3,30.00,SW,233,0.0,0.0,91,0.00,,,0.00,WUHU216DAVISVP2,2013-08-01 01:03:00,
2013-07-31 21:08:00,66.8,64.1,30.00,SW,233,0.0,0.0,91,0.00,,,0.00,WUHU216DAVISVP2,2013-08-01 01:08:00,
2013-07-31 21:13:00,66.7,64.3,30.00,SW,233,0.0,0.0,92,0.00,,,0.00,WUHU216DAVISVP2,2013-08-01 01:13:00,
2013-07-31 21:18:00,66.4,64.0,30.00,SW,233,0.0,0.0,92,0.00,,,0.00,WUHU216DAVISVP2,2013-08-01 01:18:00,
2013-07-31 21:23:00,66.2,63.8,30.00,SW,233,0.0,0.0,92,0.00,,,0.00,WUHU216DAVISVP2,2013-08-01 01:23:00,
2013-07-31 21:28:00,66.0,63.9,30.00,SW,233,0.0,0.0,93,0.00,,,0.00,WUHU216DAVISVP2,2013-08-01 01:28:00,
2013-07-31 21:33:00,65.8,63.7,30.00,SW,233,0.0,0.0,93,0.00,,,0.00,WUHU216DAVISVP2,2013-08-01 01:33:00,
2013-07-31 21:38:00,65.6,63.5,30.00,SW,233,0.0,0.0,93,0.00,,,0.00,WUHU216DAVISVP2,2013-08-01 01:38:00,
2013-07-31 21:43:00,65.4,63.6,30.00,SW,233,0.0,0.0,94,0.00,,,0.00,WUHU216DAVISVP2,2013-08-01 01:43:00,
2013-07-31 21:48:00,65.1,63.3,30.00,SW,233,0.0,0.0,94,0.00,,,0.00,WUHU216DAVISVP2,2013-08-01 01:48:00,
2013-07-31 21:53:00,64.9,63.1,30.00,SW,233,0.0,0.0,94,0.00,,,0.00,WUHU216DAVISVP2,2013-08-01 01:53:00,
2013-07-31 21:58:00,64.8,63.0,30.00,SW,233,0.0,0.0,94,0.00,,,0.00,WUHU216DAVISVP2,2013-08-01 01:58:00,
2013-07-31 22:03:00,64.6,62.8,30.00,SW,233,0.0,0.0,94,0.00,,,0.00,WUHU216DAVISVP2,2013-08-01 02:03:00,
2013-07-31 22:08:00,64.5,62.7,30.00,SW,233,0.0,0.0,94,0.00,,,0.00,WUHU216DAVISVP2,2013-08-01 02:08:00,
2013-07-31 22:13:00,64.3,62.5,30.00,SW,233,0.0,0.0,94,0.00,,,0.00,WUHU216DAVISVP2,2013-08-01 02:13:00,
2013-07-31 22:18:00,64.2,62.7,30.00,SW,233,0.0,0.0,95,0.00,,,0.00,WUHU216DAVISVP2,2013-08-01 02:18:00,
2013-07-31 22:23:00,64.0,62.5,30.00,SW,233,0.0,0.0,95,0.00,,,0.00,WUHU216DAVISVP2,2013-08-01 02:23:00,
2013-07-31 22:28:00,63.8,62.3,30.00,SW,233,0.0,0.0,95,0.00,,,0.00,WUHU216DAVISVP2,2013-08-01 02:28:00,
2013-07-31 22:33:00,63.7,62.2,30.00,SW,233,0.0,0.0,95,0.00,,,0.00,WUHU216DAVISVP2,2013-08-01 02:33:00,
2013-07-31 22:38:00,63.5,62.0,30.00,SW,233,0.0,0.0,95,0.00,,,0.00,WUHU216DAVISVP2,2013-08-01 02:38:00,
2013-07-31 22:43:00,63.4,61.9,30.00,SW,233,0.0,0.0,95,0.00,,,0.00,WUHU216DAVISVP2,2013-08-01 02:43:00,
2013-07-31 22:48:00,63.3,61.8,30.00,SW,233,0.0,0.0,95,0.00,,,0.00,WUHU216DAVISVP2,2013-08-01 02:48:00,
2013-07-31 22:53:00,63.1,61.6,30.00,SW,233,0.0,0.0,95,0.00,,,0.00,WUHU216DAVISVP2,2013-08-01 02:53:00,
2013-07-31 22:58:00,63.0,61.8,30.00,SW,233,0.0,0.0,96,0.00,,,0.00,WUHU216DAVISVP2,2013-08-01 02:58:00,
2013-07-31 23:03:00,62.9,61.4,30.00,SW,233,0.0,0.0,95,0.00,,,0.00,WUHU216DAVISVP2,2013-08-01 03:03:00,
2013-07-31 23:08:00,62.7,61.2,30.00,SW,233,0.0,0.0,95,0.00,,,0.00,WUHU216DAVISVP2,2013-08-01 03:08:00,
2013-07-31 23:13:00,62.6,61.4,30.00,SW,233,0.0,0.0,96,0.00,,,0.00,WUHU216DAVISVP2,2013-08-01 03:13:00,
2013-07-31 23:18:00,62.4,61.2,30.00,SW,233,0.0,0.0,96,0.00,,,0.00,WUHU216DAVISVP2,2013-08-01 03:18:00,
2013-07-31 23:23:00,62.3,61.1,30.00,SW,233,0.0,0.0,96,0.00,,,0.00,WUHU216DAVISVP2,2013-08-01 03:23:00,
2013-07-31 23:28:00,62.2,61.0,30.00,SW,233,0.0,0.0,96,0.00,,,0.00,WUHU216DAVISVP2,2013-08-01 03:28:00,
2013-07-31 23:33:00,62.1,60.9,30.00,SW,233,0.0,0.0,96,0.00,,,0.00,WUHU216DAVISVP2,2013-08-01 03:33:00,
2013-07-31 23:38:00,62.0,60.8,30.00,SW,233,0.0,0.0,96,0.00,,,0.00,WUHU216DAVISVP2,2013-08-01 03:38:00,
2013-07-31 23:43:00,61.9,60.7,30.00,SW,233,0.0,0.0,96,0.00,,,0.00,WUHU216DAVISVP2,2013-08-01 03:43:00,
2013-07-31 23:48:00,61.7,60.5,30.00,SW,233,0.0,0.0,96,0.00,,,0.00,WUHU216DAVISVP2,2013-08-01 03:48:00,
2013-07-31 23:53:00,61.6,60.4,30.01,SW,233,0.0,0.0,96,0.00,,,0.00,WUHU216DAVISVP2,2013-08-01 03:53:00,
2013-07-31 23:58:00,61.5,60.3,30.00,SW,233,0.0,0.0,96,0.00,,,0.00,WUHU216DAVISVP2,2013-08-01 03:58:00,